createdAt,value
2022-09-21T00:01:51.611Z,1.80
2022-09-21T00:04:38.536Z,1.30
2022-09-21T00:07:25.559Z,1.70
2022-09-21T00:10:12.677Z,1.53
2022-09-21T00:13:00.737Z,1.50
2022-09-21T00:15:47.731Z,1.60
2022-09-21T00:18:35.584Z,1.80
2022-09-21T00:21:23.082Z,1.33
2022-09-21T00:24:10.030Z,1.40
2022-09-21T00:26:56.917Z,2.03
2022-09-21T00:29:43.800Z,1.30
2022-09-21T00:32:32.663Z,1.40
2022-09-21T00:35:20.200Z,1.60
2022-09-21T00:38:07.083Z,1.87
2022-09-21T00:40:53.989Z,1.60
2022-09-21T00:43:47.120Z,1.57
2022-09-21T00:46:36.079Z,1.40
2022-09-21T00:49:24.711Z,1.70
2022-09-21T00:52:16.328Z,1.33
2022-09-21T00:55:26.679Z,1.43
2022-09-21T00:58:20.708Z,1.60
2022-09-21T01:01:07.854Z,1.70
2022-09-21T01:03:57.200Z,1.70
2022-09-21T01:06:44.296Z,1.40
2022-09-21T01:09:31.874Z,1.47
2022-09-21T01:12:42.693Z,1.53
2022-09-21T01:15:53.404Z,1.40
2022-09-21T01:18:40.241Z,1.27
2022-09-21T01:21:33.335Z,1.70
2022-09-21T01:24:41.170Z,1.60
2022-09-21T01:27:53.510Z,1.70
2022-09-21T01:30:48.251Z,1.67
2022-09-21T01:33:43.981Z,1.80
2022-09-21T01:36:33.131Z,1.60
2022-09-21T01:39:23.231Z,1.50
2022-09-21T01:42:13.083Z,1.57
2022-09-21T01:45:03.683Z,1.40
2022-09-21T01:47:52.463Z,1.83
2022-09-21T01:50:47.799Z,1.47
2022-09-21T01:54:07.509Z,1.40
2022-09-21T01:57:01.064Z,1.60
2022-09-21T02:00:00.281Z,1.70
2022-09-21T02:02:55.595Z,1.50
2022-09-21T02:05:42.804Z,1.50
2022-09-21T02:08:33.879Z,2.03
2022-09-21T02:11:21.240Z,1.60
2022-09-21T02:14:18.190Z,1.67
2022-09-21T02:17:40.613Z,1.67
2022-09-21T02:20:32.184Z,2.10
2022-09-21T02:23:30.940Z,1.60
2022-09-21T02:26:33.314Z,1.57
2022-09-21T02:29:42.156Z,1.87
2022-09-21T02:32:36.008Z,1.87
2022-09-21T02:35:40.458Z,1.70
2022-09-21T02:38:52.983Z,1.80
2022-09-21T02:42:10.288Z,2.03
2022-09-21T02:45:23.423Z,1.50
2022-09-21T02:48:38.151Z,1.20
2022-09-21T02:51:36.267Z,1.87
2022-09-21T02:54:27.711Z,1.50
2022-09-21T02:57:21.231Z,1.70
2022-09-21T03:00:08.921Z,1.97
2022-09-21T03:02:55.808Z,1.60
2022-09-21T03:05:45.099Z,2.07
2022-09-21T03:08:32.011Z,1.93
2022-09-21T03:11:20.279Z,1.80
2022-09-21T03:14:08.876Z,1.80
2022-09-21T03:16:55.808Z,1.70
2022-09-21T03:19:43.116Z,1.83
2022-09-21T03:22:29.980Z,1.80
2022-09-21T03:25:16.852Z,1.37
2022-09-21T03:28:03.765Z,1.80
2022-09-21T03:30:52.032Z,1.50
2022-09-21T03:33:39.000Z,1.98
2022-09-21T03:36:25.932Z,1.80
2022-09-21T03:39:12.855Z,1.57
2022-09-21T03:42:00.304Z,1.93
2022-09-21T03:44:47.173Z,1.67
2022-09-21T03:47:34.123Z,1.97
2022-09-21T03:50:21.003Z,1.90
2022-09-21T03:53:10.324Z,1.77
2022-09-21T03:55:57.756Z,1.73
2022-09-21T03:58:44.869Z,1.90
2022-09-21T04:01:31.773Z,2.00
2022-09-21T04:04:18.695Z,2.20
2022-09-21T04:07:05.558Z,1.90
2022-09-21T04:09:53.517Z,2.00
2022-09-21T04:12:43.683Z,1.83
2022-09-21T04:15:31.267Z,1.83
2022-09-21T04:18:18.552Z,2.10
2022-09-21T04:21:06.128Z,1.80
2022-09-21T04:23:53.048Z,2.00
2022-09-21T04:26:41.040Z,2.33
2022-09-21T04:29:27.916Z,1.97
2022-09-21T04:32:14.778Z,2.20
2022-09-21T04:35:01.757Z,2.20
2022-09-21T04:37:48.599Z,1.90
2022-09-21T04:40:35.497Z,2.13
2022-09-21T04:43:23.085Z,3.00
2022-09-21T04:46:12.960Z,4.70
2022-09-21T04:48:59.881Z,6.40
2022-09-21T04:51:46.785Z,6.17
2022-09-21T04:54:33.659Z,5.27
2022-09-21T04:57:20.582Z,3.80
2022-09-21T05:00:08.101Z,4.10
2022-09-21T05:02:54.974Z,3.00
2022-09-21T05:05:50.199Z,2.40
2022-09-21T05:08:57.900Z,2.50
2022-09-21T05:11:44.892Z,2.23
2022-09-21T05:14:31.773Z,1.87
2022-09-21T05:17:22.463Z,2.50
2022-09-21T05:20:10.521Z,2.10
2022-09-21T05:23:01.621Z,2.40
2022-09-21T05:25:48.590Z,2.20
2022-09-21T05:28:39.873Z,2.60
2022-09-21T05:31:56.779Z,2.20
2022-09-21T05:34:55.660Z,2.30
2022-09-21T05:37:59.107Z,1.97
2022-09-21T05:40:50.272Z,2.63
2022-09-21T05:43:37.406Z,2.07
2022-09-21T05:46:40.839Z,2.53
2022-09-21T05:49:56.279Z,2.10
2022-09-21T05:52:55.884Z,2.00
2022-09-21T05:56:02.997Z,2.00
2022-09-21T05:59:17.838Z,1.93
2022-09-21T06:02:26.078Z,2.20
2022-09-21T06:05:14.964Z,1.80
2022-09-21T06:08:01.940Z,1.90
2022-09-21T06:10:49.190Z,2.13
2022-09-21T06:13:37.383Z,2.00
2022-09-21T06:16:24.355Z,2.10
2022-09-21T06:19:12.548Z,1.90
2022-09-21T06:21:59.424Z,1.90
2022-09-21T06:24:46.315Z,1.77
2022-09-21T06:27:33.387Z,1.80
2022-09-21T06:30:20.282Z,1.80
2022-09-21T06:33:07.585Z,1.87
2022-09-21T06:35:56.292Z,2.20
2022-09-21T06:38:43.187Z,2.00
2022-09-21T06:41:30.080Z,2.17
2022-09-21T06:44:16.970Z,2.30
2022-09-21T06:47:04.158Z,2.23
2022-09-21T06:49:51.029Z,2.57
2022-09-21T06:52:38.627Z,2.80
2022-09-21T06:55:25.763Z,2.27
2022-09-21T06:58:12.804Z,2.60
2022-09-21T07:01:08.225Z,2.70
2022-09-21T07:03:55.262Z,2.50
2022-09-21T07:06:42.305Z,2.40
2022-09-21T07:12:36.167Z,2.13
2022-09-21T07:15:23.607Z,2.70
2022-09-21T07:18:14.577Z,2.37
2022-09-21T07:21:06.684Z,2.55
2022-09-21T07:23:53.758Z,2.37
2022-09-21T07:26:41.081Z,2.00
2022-09-21T07:29:28.038Z,2.10
2022-09-21T07:32:14.899Z,2.30
2022-09-21T07:35:02.299Z,2.70
2022-09-21T07:37:49.248Z,2.73
2022-09-21T07:40:36.198Z,2.20
2022-09-21T07:43:23.288Z,2.40
2022-09-21T07:46:12.516Z,2.63
2022-09-21T07:48:59.722Z,2.57
2022-09-21T07:51:46.663Z,2.37
2022-09-21T07:54:34.369Z,2.60
2022-09-21T07:57:39.859Z,2.37
2022-09-21T08:00:29.113Z,2.00
2022-09-21T08:03:15.988Z,2.28
2022-09-21T08:06:04.078Z,2.10
2022-09-21T08:08:56.609Z,2.13
2022-09-21T08:11:46.174Z,2.10
2022-09-21T08:14:34.569Z,2.15
2022-09-21T08:17:21.511Z,1.80
2022-09-21T08:20:08.790Z,1.88
2022-09-21T08:22:56.232Z,1.75
2022-09-21T08:25:44.525Z,1.70
2022-09-21T08:28:31.708Z,1.60
2022-09-21T08:31:24.193Z,1.60
2022-09-21T08:34:11.454Z,1.60
2022-09-21T08:36:58.361Z,1.50
2022-09-21T08:39:45.731Z,1.33
2022-09-21T08:42:50.818Z,1.30
2022-09-21T08:45:42.308Z,1.50
2022-09-21T08:48:36.814Z,1.60
2022-09-21T08:51:29.540Z,1.30
2022-09-21T08:54:23.263Z,1.30
2022-09-21T08:57:14.595Z,1.52
2022-09-21T09:00:03.539Z,1.45
2022-09-21T09:03:21.242Z,1.23
2022-09-21T09:06:18.275Z,1.38
2022-09-21T09:09:15.469Z,1.20
2022-09-21T09:12:15.689Z,1.30
2022-09-21T09:15:28.911Z,0.80
2022-09-21T09:18:35.105Z,1.10
2022-09-21T09:21:32.543Z,1.10
2022-09-21T09:24:35.629Z,1.05
2022-09-21T09:27:33.780Z,1.20
2022-09-21T09:30:20.957Z,1.17
2022-09-21T09:33:22.277Z,1.20
2022-09-21T09:36:12.566Z,1.10
2022-09-21T09:39:15.609Z,1.10
2022-09-21T09:42:05.542Z,1.13
2022-09-21T09:45:33.812Z,1.10
2022-09-21T09:48:47.853Z,1.00
2022-09-21T09:51:40.686Z,1.10
2022-09-21T09:54:29.680Z,1.20
2022-09-21T09:57:26.695Z,1.15
2022-09-21T10:00:19.387Z,1.20
2022-09-21T10:03:17.130Z,1.40
2022-09-21T10:06:04.115Z,1.25
2022-09-21T10:08:53.094Z,1.20
2022-09-21T10:11:40.476Z,1.10
2022-09-21T10:14:32.717Z,1.10
2022-09-21T10:17:20.160Z,1.17
2022-09-21T10:20:14.868Z,1.20
2022-09-21T10:23:01.991Z,1.30
2022-09-21T10:26:01.667Z,1.00
2022-09-21T10:28:56.068Z,1.00
2022-09-21T10:32:04.754Z,1.25
2022-09-21T10:35:10.379Z,1.20
2022-09-21T10:38:21.145Z,0.98
2022-09-21T10:41:11.796Z,1.00
2022-09-21T10:43:58.717Z,1.10
2022-09-21T10:46:48.079Z,1.08
2022-09-21T10:49:35.097Z,1.17
2022-09-21T10:52:24.928Z,1.10
2022-09-21T10:55:22.252Z,1.48
2022-09-21T10:58:11.066Z,1.08
2022-09-21T11:01:11.868Z,1.00
2022-09-21T11:04:09.972Z,0.73
2022-09-21T11:07:18.807Z,1.30
2022-09-21T11:10:39.740Z,1.00
2022-09-21T11:14:09.394Z,1.30
2022-09-21T11:17:16.213Z,1.48
2022-09-21T11:20:15.577Z,1.40
2022-09-21T11:23:13.630Z,1.17
2022-09-21T11:26:21.743Z,1.10
2022-09-21T11:29:12.144Z,1.30
2022-09-21T11:32:33.606Z,1.10
2022-09-21T11:35:43.637Z,1.50
2022-09-21T11:38:56.118Z,1.20
2022-09-21T11:42:00.380Z,1.00
2022-09-21T11:44:56.968Z,1.10
2022-09-21T11:48:28.776Z,1.20
2022-09-21T11:51:24.471Z,0.88
2022-09-21T11:54:41.760Z,1.08
2022-09-21T11:57:35.847Z,0.80
2022-09-21T12:00:24.972Z,1.15
2022-09-21T12:03:35.882Z,0.98
2022-09-21T12:06:40.650Z,1.02
2022-09-21T12:09:46.386Z,1.05
2022-09-21T12:12:44.650Z,1.20
2022-09-21T12:15:38.105Z,1.10
2022-09-21T12:18:53.243Z,0.90
2022-09-21T12:21:46.930Z,1.10
2022-09-21T12:24:54.417Z,1.20
2022-09-21T12:27:53.042Z,1.10
2022-09-21T12:30:44.325Z,0.98
2022-09-21T12:34:01.683Z,1.20
2022-09-21T12:37:08.055Z,1.20
2022-09-21T12:40:13.393Z,1.00
2022-09-21T12:43:13.505Z,1.20
2022-09-21T12:46:23.585Z,1.10
2022-09-21T12:49:18.684Z,1.30
2022-09-21T12:52:07.032Z,1.02
2022-09-21T12:55:30.026Z,1.08
2022-09-21T12:58:43.995Z,1.33
2022-09-21T13:01:57.117Z,1.05
2022-09-21T13:04:55.830Z,1.00
2022-09-21T13:08:19.704Z,1.05
2022-09-21T13:11:08.001Z,1.30
2022-09-21T13:14:02.038Z,1.08
2022-09-21T13:16:57.552Z,1.00
2022-09-21T13:19:55.379Z,1.00
2022-09-21T13:22:42.538Z,1.00
2022-09-21T13:25:32.523Z,0.93
2022-09-21T13:28:21.865Z,1.02
2022-09-21T13:31:40.392Z,0.90
2022-09-21T13:34:23.652Z,0.95
2022-09-21T13:37:19.794Z,0.93
2022-09-21T13:40:08.136Z,1.02
2022-09-21T13:43:16.116Z,0.90
2022-09-21T13:46:03.229Z,0.93
2022-09-21T13:48:53.517Z,0.95
2022-09-21T13:52:12.948Z,1.10
2022-09-21T13:55:02.366Z,1.02
2022-09-21T13:57:55.718Z,0.75
2022-09-21T14:01:02.690Z,0.95
2022-09-21T14:03:54.042Z,1.20
2022-09-21T14:06:47.619Z,1.10
2022-09-21T14:09:56.182Z,1.23
2022-09-21T14:12:45.379Z,1.00
2022-09-21T14:15:37.095Z,1.05
2022-09-21T14:18:38.134Z,1.17
2022-09-21T14:21:25.241Z,0.80
2022-09-21T14:24:20.911Z,1.20
2022-09-21T14:27:33.038Z,1.00
2022-09-21T14:30:24.188Z,1.35
2022-09-21T14:33:29.102Z,1.10
2022-09-21T14:36:21.684Z,1.00
2022-09-21T14:39:40.685Z,1.10
2022-09-21T14:42:29.022Z,0.95
2022-09-21T14:45:18.672Z,1.10
2022-09-21T14:48:08.713Z,1.10
2022-09-21T14:51:12.146Z,1.30
2022-09-21T14:54:22.063Z,1.25
2022-09-21T14:57:37.169Z,1.00
2022-09-21T15:00:38.497Z,1.05
2022-09-21T15:04:16.523Z,1.00
2022-09-21T15:07:57.786Z,1.05
2022-09-21T15:11:08.022Z,1.00
2022-09-21T15:14:11.128Z,0.90
2022-09-21T15:16:58.091Z,1.00
2022-09-21T15:19:44.978Z,0.82
2022-09-21T15:22:32.485Z,1.10
2022-09-21T15:25:19.411Z,0.90
2022-09-21T15:28:09.586Z,1.00
2022-09-21T15:30:57.708Z,1.20
2022-09-21T15:33:47.684Z,1.08
2022-09-21T15:36:39.603Z,1.05
2022-09-21T15:39:30.724Z,0.90
2022-09-21T15:42:22.874Z,0.80
2022-09-21T15:45:18.515Z,0.82
2022-09-21T15:48:13.455Z,0.73
2022-09-21T15:51:13.486Z,1.10
2022-09-21T15:54:14.223Z,1.10
2022-09-21T15:57:08.606Z,1.00
2022-09-21T15:59:56.157Z,1.10
2022-09-21T16:03:04.102Z,1.15
2022-09-21T16:05:55.939Z,1.05
2022-09-21T16:08:42.984Z,1.00
2022-09-21T16:11:29.819Z,0.77
2022-09-21T16:14:36.376Z,1.13
2022-09-21T16:17:28.382Z,0.80
2022-09-21T16:20:22.919Z,0.90
2022-09-21T16:23:16.951Z,0.82
2022-09-21T16:26:04.052Z,0.95
2022-09-21T16:28:57.832Z,0.95
2022-09-21T16:31:50.082Z,0.80
2022-09-21T16:34:39.118Z,0.77
2022-09-21T16:37:28.824Z,0.77
2022-09-21T16:40:15.789Z,0.93
2022-09-21T16:43:05.231Z,0.70
2022-09-21T16:45:52.172Z,1.00
2022-09-21T16:48:40.112Z,1.00
2022-09-21T16:51:28.468Z,1.05
2022-09-21T16:54:20.516Z,0.80
2022-09-21T16:57:07.465Z,0.90
2022-09-21T16:59:54.689Z,0.77
2022-09-21T17:02:42.750Z,1.00
2022-09-21T17:05:29.730Z,0.90
2022-09-21T17:08:16.637Z,0.85
2022-09-21T17:11:04.410Z,0.80
2022-09-21T17:13:51.782Z,0.80
2022-09-21T17:16:38.854Z,0.82
2022-09-21T17:19:25.821Z,1.10
2022-09-21T17:22:19.063Z,1.17
2022-09-21T17:25:06.526Z,1.10
2022-09-21T17:27:53.536Z,1.10
2022-09-21T17:30:42.569Z,1.50
2022-09-21T17:33:29.835Z,1.20
2022-09-21T17:36:18.002Z,1.70
2022-09-21T17:39:05.562Z,1.90
2022-09-21T17:42:02.266Z,3.75
2022-09-21T17:45:17.135Z,3.33
2022-09-21T17:48:04.833Z,3.93
2022-09-21T17:50:52.111Z,2.90
2022-09-21T17:53:40.344Z,2.60
2022-09-21T17:56:51.286Z,2.13
2022-09-21T17:59:38.417Z,2.20
2022-09-21T18:02:25.985Z,2.23
2022-09-21T18:05:24.316Z,1.70
2022-09-21T18:08:11.425Z,2.00
2022-09-21T18:11:36.247Z,1.80
2022-09-21T18:14:41.772Z,1.90
2022-09-21T18:17:43.157Z,1.60
2022-09-21T18:20:55.008Z,1.80
2022-09-21T18:23:53.404Z,2.00
2022-09-21T18:26:41.838Z,2.00
2022-09-21T18:29:41.805Z,2.30
2022-09-21T18:32:53.606Z,2.30
2022-09-21T18:36:01.542Z,2.27
2022-09-21T18:39:25.835Z,2.73
2022-09-21T18:42:50.245Z,2.40
2022-09-21T18:45:44.011Z,2.83
2022-09-21T18:48:51.627Z,1.90
2022-09-21T18:51:52.787Z,2.70
2022-09-21T18:54:40.436Z,2.60
2022-09-21T18:57:32.158Z,2.73
2022-09-21T19:00:20.643Z,2.30
2022-09-21T19:03:17.485Z,2.90
2022-09-21T19:06:27.293Z,3.53
2022-09-21T19:09:29.551Z,5.63
2022-09-21T19:12:21.150Z,6.50
2022-09-21T19:15:56.006Z,5.07
2022-09-21T19:19:10.944Z,4.93
2022-09-21T19:22:24.433Z,4.63
2022-09-21T19:25:40.655Z,3.83
2022-09-21T19:29:04.731Z,3.53
2022-09-21T19:31:51.817Z,3.80
2022-09-21T19:34:38.898Z,3.90
2022-09-21T19:37:25.867Z,4.27
2022-09-21T19:40:14.571Z,3.80
2022-09-21T19:43:23.709Z,3.53
2022-09-21T19:46:34.916Z,2.97
2022-09-21T19:49:27.818Z,3.20
2022-09-21T19:52:18.350Z,2.30
2022-09-21T19:55:36.096Z,2.30
2022-09-21T19:58:41.602Z,2.13
2022-09-21T20:01:28.951Z,2.03
2022-09-21T20:04:15.966Z,1.93
2022-09-21T20:07:18.790Z,1.80
2022-09-21T20:10:24.082Z,2.17
2022-09-21T20:13:37.267Z,1.37
2022-09-21T20:16:49.636Z,1.50
2022-09-21T20:19:59.600Z,1.27
2022-09-21T20:22:46.773Z,1.50
2022-09-21T20:25:54.496Z,1.50
2022-09-21T20:28:41.970Z,1.50
2022-09-21T20:31:29.605Z,1.40
2022-09-21T20:34:16.568Z,1.40
2022-09-21T20:37:06.318Z,1.60
2022-09-21T20:39:54.124Z,1.50
2022-09-21T20:42:41.809Z,1.30
2022-09-21T20:45:29.756Z,1.30
2022-09-21T20:48:16.893Z,1.60
2022-09-21T20:51:07.060Z,1.20
2022-09-21T20:53:53.937Z,1.53
2022-09-21T20:56:41.196Z,1.47
2022-09-21T20:59:28.110Z,1.43
2022-09-21T21:02:16.567Z,1.23
2022-09-21T21:05:03.948Z,1.30
2022-09-21T21:07:50.899Z,1.30
2022-09-21T21:10:37.825Z,1.20
2022-09-21T21:13:24.924Z,1.40
2022-09-21T21:16:12.635Z,1.50
2022-09-21T21:18:59.616Z,1.20
2022-09-21T21:21:46.595Z,0.97
2022-09-21T21:24:43.574Z,1.20
2022-09-21T21:27:31.425Z,1.20
2022-09-21T21:30:18.455Z,1.27
2022-09-21T21:33:05.844Z,1.10
2022-09-21T21:35:52.742Z,0.90
2022-09-21T21:38:41.874Z,1.30
2022-09-21T21:41:30.839Z,1.20
2022-09-21T21:44:17.781Z,1.40
2022-09-21T21:47:27.387Z,1.70
2022-09-21T21:50:12.572Z,1.77
2022-09-21T21:52:59.507Z,1.40
2022-09-21T21:55:46.784Z,1.60
2022-09-21T21:58:34.518Z,1.83
2022-09-21T22:01:26.930Z,1.50
2022-09-21T22:04:14.033Z,1.30
2022-09-21T22:07:01.036Z,1.33
2022-09-21T22:09:47.924Z,1.30
2022-09-21T22:12:35.611Z,1.47
2022-09-21T22:15:22.491Z,1.60
2022-09-21T22:18:09.365Z,1.57
2022-09-21T22:21:02.190Z,1.90
2022-09-21T22:24:04.732Z,2.00
2022-09-21T22:26:51.619Z,1.80
2022-09-21T22:29:39.532Z,1.80
2022-09-21T22:32:26.418Z,2.43
2022-09-21T22:35:13.539Z,1.67
2022-09-21T22:38:01.466Z,1.80
2022-09-21T22:40:48.442Z,2.33
2022-09-21T22:43:36.628Z,2.00
2022-09-21T22:46:25.535Z,2.20
2022-09-21T22:49:12.399Z,2.30
2022-09-21T22:51:59.275Z,2.33
2022-09-21T22:54:46.196Z,2.80
2022-09-21T22:57:33.078Z,2.90
2022-09-21T23:00:19.973Z,2.20
2022-09-21T23:03:07.175Z,1.60
2022-09-21T23:05:58.056Z,1.73
2022-09-21T23:08:49.551Z,1.60
2022-09-21T23:11:39.919Z,1.70
2022-09-21T23:14:26.805Z,1.30
2022-09-21T23:17:13.687Z,1.60
2022-09-21T23:20:00.682Z,1.50
2022-09-21T23:22:47.534Z,1.40
2022-09-21T23:25:34.428Z,1.43
2022-09-21T23:28:21.332Z,1.10
2022-09-21T23:31:10.808Z,1.20
2022-09-21T23:34:07.368Z,1.60
2022-09-21T23:36:54.252Z,1.20
2022-09-21T23:39:41.163Z,1.37
2022-09-21T23:42:28.106Z,1.50
2022-09-21T23:45:15.012Z,1.10
2022-09-21T23:48:02.028Z,1.70
2022-09-21T23:50:48.916Z,1.53
2022-09-21T23:53:36.604Z,1.37
2022-09-21T23:56:24.891Z,1.37
2022-09-21T23:59:12.290Z,1.30
